Bryan, Texas
Current Conditions -  °F | °C
As of 4:35 AM on Thursday 23 Oct 2014 (Local Time) from KCFD Reporting Station
Clear Clear  
Wind Chill: 62°   Ceiling: Unl
Heat Index: 62°   Visibility: 10mi
Dew Point: 58°   Wind: 6mph
Humidity: 86%   Direction: 70°ENE
Pressure: 30.09"   Gusts: NA
Location:  30.67°N, 96.37°W
Report Text: KCFD 230935Z AUTO 07005KT 10SM CLR 17/14 A3009 RMK AO2 T01660142
Loading
Personal Weather Stations






























Interactive Weather Map New forecast layout! Learn more

10-Day Weather Forecast

Advertisements
Track Severe Weather on mobile